createdAt,value
2022-09-10T00:04:26.933Z,0.4
2022-09-10T00:10:46.922Z,0.4
2022-09-10T00:17:10.037Z,3.3
2022-09-10T00:23:29.952Z,3.3
2022-09-10T00:29:52.917Z,0.9
2022-09-10T00:36:12.957Z,0.9
2022-09-10T00:42:36.013Z,0.4
2022-09-10T00:48:55.981Z,0.4
2022-09-10T00:55:19.026Z,0.5
2022-09-10T01:01:38.934Z,0.5
2022-09-10T01:08:02.028Z,0.2
2022-09-10T01:14:22.052Z,0.2
2022-09-10T01:20:44.970Z,16.3
2022-09-10T01:27:04.982Z,16.3
2022-09-10T01:33:27.906Z,0.3
2022-09-10T01:39:47.969Z,0.3
2022-09-10T01:46:11.016Z,0.3
2022-09-10T01:52:30.928Z,0.3
2022-09-10T01:58:54.018Z,6.9
2022-09-10T02:05:13.994Z,6.9
2022-09-10T02:11:37.031Z,0.6
2022-09-10T02:17:56.887Z,0.6
2022-09-10T02:24:20.031Z,0.4
2022-09-10T02:30:39.898Z,0.4
2022-09-10T02:37:02.991Z,18.2
2022-09-10T02:43:22.940Z,18.2
2022-09-10T02:49:45.982Z,0.3
2022-09-10T02:56:05.952Z,0.3
2022-09-10T03:02:28.952Z,20.9
2022-09-10T03:08:49.115Z,20.9
2022-09-10T03:15:11.995Z,0.2
2022-09-10T03:21:32.075Z,0.2
2022-09-10T03:37:24.877Z,0.6
2022-09-10T03:43:44.940Z,0.6
2022-09-10T03:50:07.910Z,0.1
2022-09-10T03:56:27.913Z,0.1
2022-09-10T04:02:50.913Z,0.4
2022-09-10T04:09:10.893Z,0.4
2022-09-10T04:15:33.963Z,3.2
2022-09-10T04:21:54.080Z,3.2
2022-09-10T04:28:16.911Z,0.3
2022-09-10T04:34:36.904Z,0.3
2022-09-10T04:41:00.007Z,0.7
2022-09-10T04:47:19.946Z,0.7
2022-09-10T04:53:43.030Z,0.1
2022-09-10T05:00:02.961Z,0.1
2022-09-10T05:06:25.917Z,0.7
2022-09-10T05:12:46.011Z,0.7
2022-09-10T05:19:08.917Z,0.2
2022-09-10T05:25:28.974Z,0.2
2022-09-10T05:31:52.036Z,0.8
2022-09-10T05:38:11.974Z,0.8
2022-09-10T05:44:34.965Z,0
2022-09-10T05:50:54.979Z,0
2022-09-10T05:57:17.949Z,0.5
2022-09-10T06:03:37.911Z,0.5
2022-09-10T06:10:00.969Z,0.2
2022-09-10T06:16:21.055Z,0.2
2022-09-10T06:22:43.909Z,0.6
2022-09-10T06:29:03.969Z,0.6
2022-09-10T06:35:26.942Z,2.7
2022-09-10T06:41:49.682Z,2.7
2022-09-10T06:48:41.395Z,0.4
2022-09-10T06:54:29.956Z,0.4
2022-09-10T07:00:53.028Z,0.1
2022-09-10T07:07:19.025Z,0.1
2022-09-10T07:13:41.966Z,1
2022-09-10T07:20:01.945Z,1
2022-09-10T07:26:24.959Z,0.5
2022-09-10T07:32:44.927Z,0.5
2022-09-10T07:39:07.985Z,0.5
2022-09-10T07:45:27.949Z,0.5
2022-09-10T07:51:50.955Z,0.3
2022-09-10T07:58:11.032Z,0.3
2022-09-10T08:04:36.908Z,0.3
2022-09-10T08:10:53.991Z,0.3
2022-09-10T08:17:16.898Z,0.9
2022-09-10T08:23:37.057Z,0.9
2022-09-10T08:30:00.047Z,1
2022-09-10T08:36:19.974Z,1
2022-09-10T09:00:27.893Z,0.6
2022-09-10T09:06:50.890Z,0.9
2022-09-10T09:13:10.925Z,0.9
2022-09-10T09:19:33.946Z,0.7
2022-09-10T09:25:54.092Z,0.7
2022-09-10T09:32:16.954Z,3.1
2022-09-10T09:38:37.137Z,3.1
2022-09-10T09:45:00.057Z,0.6
2022-09-10T09:51:19.990Z,0.6
2022-09-10T09:57:43.271Z,2.5
2022-09-10T10:04:03.044Z,2.5
2022-09-10T10:10:25.909Z,0.6
2022-09-10T10:16:46.069Z,0.6
2022-09-10T10:23:08.941Z,1.2
2022-09-10T10:29:29.096Z,1.2
2022-09-10T10:35:52.011Z,0.4
2022-09-10T10:42:11.966Z,0.4
2022-09-10T10:48:34.995Z,1.1
2022-09-10T10:54:55.020Z,1.1
2022-09-10T11:01:18.039Z,0.9
2022-09-10T11:07:37.947Z,0.9
2022-09-10T11:14:01.014Z,0.5
2022-09-10T11:20:29.588Z,0.5
2022-09-10T11:26:43.959Z,1.7
2022-09-10T11:33:04.089Z,1.7
2022-09-10T11:39:26.994Z,6.9
2022-09-10T11:45:46.954Z,6.9
2022-09-10T11:52:10.017Z,0.3
2022-09-10T11:58:30.011Z,0.3
2022-09-10T12:04:53.014Z,0.9
2022-09-10T12:11:13.115Z,0.9
2022-09-10T12:17:36.010Z,1
2022-09-10T12:23:56.035Z,1
2022-09-10T12:30:18.958Z,0.5
2022-09-10T12:36:38.992Z,0.5
2022-09-10T12:43:02.117Z,0.6
2022-09-10T12:49:22.016Z,0.6
2022-09-10T12:55:45.085Z,0.6
2022-09-10T13:02:04.981Z,0.6
2022-09-10T13:08:27.958Z,0.9
2022-09-10T13:14:47.936Z,0.9
2022-09-10T13:21:11.012Z,2.5
2022-09-10T13:27:31.071Z,2.5
2022-09-10T13:33:53.946Z,0.8
2022-09-10T13:40:13.946Z,0.8
2022-09-10T13:46:37.012Z,0.7
2022-09-10T14:10:50.474Z,9.4
2022-09-10T14:17:09.887Z,9.4
2022-09-10T14:23:32.923Z,9.4
2022-09-10T14:29:52.938Z,9.4
2022-09-10T14:36:15.949Z,1.9
2022-09-10T14:42:35.954Z,1.9
2022-09-10T14:48:58.941Z,2.1
2022-09-10T14:55:19.716Z,2.1
2022-09-10T15:01:43.041Z,3
2022-09-10T15:08:03.013Z,3
2022-09-10T15:14:26.153Z,5.6
2022-09-10T15:20:46.081Z,5.6
2022-09-10T15:27:09.187Z,3
2022-09-10T15:33:30.113Z,3
2022-09-10T15:39:53.299Z,3.1
2022-09-10T15:46:13.131Z,3.1
2022-09-10T15:52:35.892Z,2.6
2022-09-10T15:58:55.964Z,2.6
2022-09-10T16:05:18.917Z,2.1
2022-09-10T16:11:38.919Z,2.1
2022-09-10T16:18:01.919Z,3
2022-09-10T16:24:21.930Z,3
2022-09-10T16:30:44.966Z,16.7
2022-09-10T16:37:04.889Z,16.7
2022-09-10T16:43:27.983Z,1.2
2022-09-10T16:49:47.948Z,1.2
2022-09-10T16:56:10.890Z,1.7
2022-09-10T17:02:31.286Z,1.7
2022-09-10T17:08:54.200Z,2.2
2022-09-10T17:15:14.265Z,2.2
2022-09-10T17:21:36.959Z,2.3
2022-09-10T17:27:56.930Z,2.3
2022-09-10T17:34:19.938Z,2.9
2022-09-10T17:40:39.996Z,2.9
2022-09-10T17:47:02.999Z,7.7
2022-09-10T17:53:22.956Z,7.7
2022-09-10T17:59:46.024Z,5.9
2022-09-10T18:06:05.941Z,5.9
2022-09-10T18:12:28.947Z,6.8
2022-09-10T18:18:49.035Z,6.8
2022-09-10T18:25:11.962Z,8.7
2022-09-10T18:31:31.992Z,8.7
2022-09-10T18:37:55.047Z,26.1
2022-09-10T18:44:14.952Z,26.1
2022-09-10T18:50:38.076Z,7.7
2022-09-10T18:56:57.937Z,7.7
2022-09-10T19:03:20.933Z,6
2022-09-10T19:19:09.853Z,12.2
2022-09-10T19:25:29.890Z,12.2
2022-09-10T19:31:53.013Z,12.2
2022-09-10T19:38:34.179Z,12.2
2022-09-10T19:44:36.000Z,4.1
2022-09-10T19:50:56.016Z,4.1
2022-09-10T19:57:19.022Z,7.4
2022-09-10T20:03:38.912Z,7.4
2022-09-10T20:10:02.085Z,10.9
2022-09-10T20:16:22.001Z,10.9
2022-09-10T20:22:44.942Z,6.5
2022-09-10T20:29:04.877Z,6.5
2022-09-10T20:35:27.974Z,9.2
2022-09-10T20:41:47.909Z,9.2
2022-09-10T20:48:11.027Z,8.7
2022-09-10T20:54:30.976Z,8.7
2022-09-10T21:00:53.908Z,6.8
2022-09-10T21:07:14.109Z,6.8
2022-09-10T21:13:37.068Z,17.3
2022-09-10T21:19:57.078Z,17.3
2022-09-10T21:26:20.018Z,11.9
2022-09-10T21:32:39.915Z,11.9
2022-09-10T21:39:02.980Z,9.4
2022-09-10T21:45:26.100Z,9.4
2022-09-10T21:51:45.909Z,11.8
2022-09-10T21:58:05.925Z,11.8
2022-09-10T22:22:23.955Z,27.6
2022-09-10T22:28:44.082Z,27.6
2022-09-10T22:35:06.937Z,27.6
2022-09-10T22:41:27.124Z,27.6
2022-09-10T22:47:49.987Z,28.4
2022-09-10T22:54:10.038Z,28.4
2022-09-10T23:00:32.995Z,14.6
2022-09-10T23:06:52.944Z,14.6
2022-09-10T23:13:15.954Z,12.1
2022-09-10T23:19:35.946Z,12.1
2022-09-10T23:25:58.944Z,14.5
2022-09-10T23:32:18.985Z,14.5
2022-09-10T23:38:42.020Z,14.9
2022-09-10T23:45:01.903Z,14.9
2022-09-10T23:51:24.985Z,12.3
2022-09-10T23:57:44.918Z,12.3
